createdAt,value
2019-01-13T00:00:33.960Z,98582.87
2019-01-13T00:03:02.396Z,98586.94
2019-01-13T00:05:30.771Z,98589.72
2019-01-13T00:07:59.135Z,98590.69
2019-01-13T00:10:27.580Z,98586.00
2019-01-13T00:12:55.951Z,98599.23
2019-01-13T00:15:24.326Z,98597.53
2019-01-13T00:17:52.688Z,98588.77
2019-01-13T00:20:21.065Z,98585.41
2019-01-13T00:22:49.592Z,98587.20
2019-01-13T00:25:17.961Z,98581.05
2019-01-13T00:27:46.399Z,98571.57
2019-01-13T00:30:19.472Z,98589.13
2019-01-13T00:32:48.047Z,98585.75
2019-01-13T00:35:16.694Z,98582.29
2019-01-13T00:37:45.025Z,98585.06
2019-01-13T00:40:15.829Z,98589.72
2019-01-13T00:42:44.204Z,98587.71
2019-01-13T00:45:14.226Z,98583.86
2019-01-13T00:47:42.598Z,98592.63
2019-01-13T00:50:15.490Z,98582.64
2019-01-13T00:52:44.302Z,98595.05
2019-01-13T00:55:14.417Z,98597.83
2019-01-13T00:57:42.811Z,98592.16
2019-01-13T01:00:14.467Z,98585.19
2019-01-13T01:02:42.837Z,98593.13
2019-01-13T01:05:11.337Z,98593.73
2019-01-13T01:07:39.821Z,98593.38
2019-01-13T01:10:11.726Z,98592.06
2019-01-13T01:12:40.094Z,98592.88
2019-01-13T01:15:10.806Z,98585.06
2019-01-13T01:17:39.251Z,98574.48
2019-01-13T01:20:13.264Z,98578.58
2019-01-13T01:22:41.879Z,98575.93
2019-01-13T01:25:13.501Z,98573.06
2019-01-13T01:27:42.023Z,98565.47
2019-01-13T01:30:13.393Z,98555.48
2019-01-13T01:32:41.767Z,98551.52
2019-01-13T01:35:10.270Z,98547.80
2019-01-13T01:37:38.715Z,98557.41
2019-01-13T01:40:12.855Z,98550.45
2019-01-13T01:42:41.222Z,98555.39
2019-01-13T01:45:11.850Z,98555.86
2019-01-13T01:47:40.224Z,98552.84
2019-01-13T01:50:10.924Z,98560.78
2019-01-13T01:52:39.285Z,98562.61
2019-01-13T01:55:13.256Z,98564.88
2019-01-13T01:57:41.889Z,98560.09
2019-01-13T02:00:16.525Z,98558.86
2019-01-13T02:02:45.461Z,98548.78
2019-01-13T02:05:13.952Z,98556.84
2019-01-13T02:07:42.340Z,98552.37
2019-01-13T02:10:15.917Z,98550.70
2019-01-13T02:12:44.350Z,98553.81
2019-01-13T02:15:21.602Z,98547.70
2019-01-13T02:17:50.626Z,98540.24
2019-01-13T02:20:20.141Z,98539.05
2019-01-13T02:22:48.672Z,98546.98
2019-01-13T02:25:20.052Z,98549.75
2019-01-13T02:27:48.490Z,98549.25
2019-01-13T02:30:19.652Z,98525.56
2019-01-13T02:32:48.006Z,98525.56
2019-01-13T02:35:16.452Z,98506.23
2019-01-13T02:37:44.883Z,98506.70
2019-01-13T02:40:18.293Z,98503.67
2019-01-13T02:42:46.800Z,98499.02
2019-01-13T02:45:26.333Z,98509.95
2019-01-13T02:47:54.707Z,98508.28
2019-01-13T02:50:23.161Z,98505.73
2019-01-13T02:52:51.595Z,98496.97
2019-01-13T02:55:20.674Z,98484.69
2019-01-13T02:57:49.218Z,98477.27
2019-01-13T03:00:22.675Z,98474.11
2019-01-13T03:02:51.209Z,98486.64
2019-01-13T03:05:19.655Z,98490.11
2019-01-13T03:07:48.087Z,98490.61
2019-01-13T03:10:21.673Z,98486.27
2019-01-13T03:12:51.016Z,98492.41
2019-01-13T03:15:21.142Z,98498.30
2019-01-13T03:17:50.355Z,98501.28
2019-01-13T03:20:18.735Z,98490.83
2019-01-13T03:22:47.169Z,98494.80
2019-01-13T03:25:17.888Z,98501.07
2019-01-13T03:27:46.255Z,98509.00
2019-01-13T03:30:20.245Z,98506.02
2019-01-13T03:32:48.578Z,98502.98
2019-01-13T03:35:17.501Z,98507.42
2019-01-13T03:37:45.938Z,98496.03
2019-01-13T03:40:16.869Z,98486.39
2019-01-13T03:42:45.236Z,98484.25
2019-01-13T03:45:13.776Z,98487.38
2019-01-13T03:47:42.142Z,98484.86
2019-01-13T03:50:16.504Z,98481.36
2019-01-13T03:52:52.483Z,98474.75
2019-01-13T03:55:16.353Z,98459.86
2019-01-13T03:57:44.965Z,98456.84
2019-01-13T04:00:16.036Z,98452.05
2019-01-13T04:02:44.420Z,98443.27
2019-01-13T04:05:12.968Z,98429.67
2019-01-13T04:07:41.415Z,98428.34
2019-01-13T04:10:12.402Z,98421.39
2019-01-13T04:12:40.788Z,98415.63
2019-01-13T04:15:14.812Z,98415.63
2019-01-13T04:17:43.335Z,98418.40
2019-01-13T04:20:11.710Z,98414.06
2019-01-13T04:22:40.091Z,98406.97
2019-01-13T04:25:08.599Z,98401.78
2019-01-13T04:27:37.053Z,98403.10
2019-01-13T04:30:08.470Z,98398.76
2019-01-13T04:32:36.851Z,98382.55
2019-01-13T04:35:07.463Z,98380.38
2019-01-13T04:37:35.852Z,98376.91
2019-01-13T04:40:07.854Z,98368.13
2019-01-13T04:42:36.236Z,98371.13
2019-01-13T04:45:07.059Z,98372.58
2019-01-13T04:47:35.430Z,98359.35
2019-01-13T04:50:06.573Z,98366.94
2019-01-13T04:52:35.015Z,98363.92
2019-01-13T04:55:03.940Z,98360.33
2019-01-13T04:57:32.318Z,98360.80
2019-01-13T05:00:00.680Z,98364.42
2019-01-13T05:02:29.119Z,98360.08
2019-01-13T05:04:57.474Z,98350.95
2019-01-13T05:07:25.851Z,98350.02
2019-01-13T05:09:54.237Z,98350.02
2019-01-13T05:12:22.613Z,98345.67
2019-01-13T05:14:51.695Z,98330.78
2019-01-13T05:17:20.069Z,98316.25
2019-01-13T05:19:48.461Z,98304.83
2019-01-13T05:22:16.821Z,98293.05
2019-01-13T05:24:45.203Z,98293.05
2019-01-13T05:27:13.636Z,98294.03
2019-01-13T05:29:41.966Z,98279.49
2019-01-13T05:32:10.334Z,98274.20
2019-01-13T05:34:38.719Z,98265.91
2019-01-13T05:37:07.085Z,98263.26
2019-01-13T05:39:35.469Z,98262.91
2019-01-13T05:42:03.841Z,98272.64
2019-01-13T05:44:32.217Z,98270.97
2019-01-13T05:47:00.605Z,98247.66
2019-01-13T05:49:28.979Z,98238.88
2019-01-13T05:51:57.344Z,98236.23
2019-01-13T05:54:25.717Z,98236.74
2019-01-13T05:56:54.097Z,98235.42
2019-01-13T05:59:22.473Z,98234.57
2019-01-13T06:01:50.849Z,98234.44
2019-01-13T06:04:19.256Z,98234.44
2019-01-13T06:06:47.646Z,98221.70
2019-01-13T06:09:16.012Z,98215.94
2019-01-13T06:11:44.390Z,98217.39
2019-01-13T06:14:12.753Z,98216.54
2019-01-13T06:16:41.138Z,98211.13
2019-01-13T06:19:09.507Z,98207.08
2019-01-13T06:21:37.888Z,98211.63
2019-01-13T06:24:06.261Z,98214.27
2019-01-13T06:26:34.639Z,98215.59
2019-01-13T06:29:03.011Z,98221.83
2019-01-13T06:31:31.388Z,98233.72
2019-01-13T06:33:59.763Z,98229.77
2019-01-13T06:36:28.136Z,98228.44
2019-01-13T06:38:56.500Z,98230.73
2019-01-13T06:41:24.881Z,98221.48
2019-01-13T06:43:53.252Z,98227.59
2019-01-13T06:46:21.639Z,98221.83
2019-01-13T06:48:50.013Z,98217.52
2019-01-13T06:51:18.380Z,98222.81
2019-01-13T06:53:46.767Z,98216.20
2019-01-13T06:56:15.183Z,98221.48
2019-01-13T06:58:43.561Z,98216.20
2019-01-13T07:01:11.938Z,98221.48
2019-01-13T07:03:40.320Z,98217.52
2019-01-13T07:06:08.688Z,98213.19
2019-01-13T07:08:37.064Z,98204.78
2019-01-13T07:11:05.443Z,98207.42
2019-01-13T07:13:33.829Z,98204.30
2019-01-13T07:16:02.192Z,98205.13
2019-01-13T07:18:30.577Z,98208.27
2019-01-13T07:20:58.940Z,98199.02
2019-01-13T07:23:27.329Z,98202.48
2019-01-13T07:25:55.699Z,98201.66
2019-01-13T07:28:24.587Z,98201.16
2019-01-13T07:30:52.955Z,98194.92
2019-01-13T07:33:21.346Z,98199.36
2019-01-13T07:35:49.722Z,98191.56
2019-01-13T07:38:18.101Z,98187.94
2019-01-13T07:40:46.483Z,98186.28
2019-01-13T07:43:14.848Z,98173.41
2019-01-13T07:45:43.235Z,98172.08
2019-01-13T07:48:11.599Z,98170.66
2019-01-13T07:50:39.983Z,98165.47
2019-01-13T07:53:08.345Z,98162.36
2019-01-13T07:55:36.746Z,98162.83
2019-01-13T07:58:05.173Z,98153.58
2019-01-13T08:00:33.706Z,98148.30
2019-01-13T08:03:02.063Z,98150.94
2019-01-13T08:05:30.440Z,98149.27
2019-01-13T08:07:58.879Z,98144.84
2019-01-13T08:10:27.259Z,98140.02
2019-01-13T08:12:55.625Z,98136.41
2019-01-13T08:15:25.055Z,98139.55
2019-01-13T08:17:53.419Z,98139.69
2019-01-13T08:20:26.693Z,98136.66
2019-01-13T08:22:55.128Z,98139.31
2019-01-13T08:25:23.874Z,98130.91
2019-01-13T08:27:52.248Z,98129.24
2019-01-13T08:30:21.356Z,98127.41
2019-01-13T08:32:49.788Z,98120.81
2019-01-13T08:35:18.170Z,98122.12
2019-01-13T08:37:46.540Z,98124.44
2019-01-13T08:40:17.360Z,98119.99
2019-01-13T08:42:45.816Z,98121.08
2019-01-13T08:45:14.530Z,98107.02
2019-01-13T08:47:42.905Z,98109.66
2019-01-13T08:50:14.182Z,98102.33
2019-01-13T08:52:42.557Z,98104.16
2019-01-13T08:55:11.164Z,98094.54
2019-01-13T08:57:39.548Z,98090.58
2019-01-13T09:00:25.706Z,98092.03
2019-01-13T09:02:54.042Z,98096.50
2019-01-13T09:05:22.482Z,98094.33
2019-01-13T09:07:50.989Z,98092.64
2019-01-13T09:10:20.005Z,98083.05
2019-01-13T09:12:48.525Z,98090.50
2019-01-13T09:15:19.142Z,98087.01
2019-01-13T11:40:17.802Z,97888.69
2019-01-13T11:42:46.181Z,97869.02
2019-01-13T11:45:14.818Z,97874.64
2019-01-13T11:47:43.267Z,97869.02
2019-01-13T11:50:14.194Z,97862.89
2019-01-13T11:52:42.636Z,97863.97
2019-01-13T11:55:13.554Z,97845.09
2019-01-13T11:57:42.097Z,97842.93
2019-01-13T12:00:16.072Z,97820.41
2019-01-13T12:02:44.581Z,97820.41
2019-01-13T12:05:13.093Z,97832.73
2019-01-13T12:07:41.554Z,97839.81
2019-01-13T12:10:14.020Z,97832.73
2019-01-13T12:12:42.430Z,97835.84
2019-01-13T12:15:13.344Z,97833.69
2019-01-13T12:17:41.723Z,97835.38
2019-01-13T12:20:15.228Z,97819.38
2019-01-13T12:22:43.694Z,97811.11
2019-01-13T12:25:17.263Z,97803.86
2019-01-13T12:27:45.977Z,97804.00
2019-01-13T12:30:17.568Z,97793.44
2019-01-13T12:32:46.102Z,97796.92
2019-01-13T12:35:14.478Z,97795.12
2019-01-13T12:37:42.865Z,97795.94
2019-01-13T12:40:14.378Z,97789.33
2019-01-13T12:42:42.985Z,97792.34
2019-01-13T12:45:14.339Z,97786.55
2019-01-13T12:47:43.003Z,97782.10
2019-01-13T12:50:17.605Z,97776.96
2019-01-13T12:52:46.044Z,97775.98
2019-01-13T12:55:14.561Z,97756.52
2019-01-13T12:57:43.044Z,97767.09
2019-01-13T13:00:16.231Z,97761.81
2019-01-13T13:02:44.797Z,97763.97
2019-01-13T13:05:14.757Z,97751.23
2019-01-13T13:07:43.298Z,97754.36
2019-01-13T13:10:23.869Z,97751.23
2019-01-13T13:12:52.412Z,97745.59
2019-01-13T13:15:20.772Z,97744.77
2019-01-13T13:17:49.250Z,97739.41
2019-01-13T13:20:18.036Z,97731.05
2019-01-13T13:22:46.518Z,97731.56
2019-01-13T13:25:15.479Z,97730.58
2019-01-13T13:27:43.893Z,97731.42
2019-01-13T13:30:15.508Z,97735.24
2019-01-13T13:32:43.885Z,97724.81
2019-01-13T13:35:12.494Z,97717.84
2019-01-13T13:37:41.332Z,97718.34
2019-01-13T13:40:12.749Z,97711.75
2019-01-13T13:42:41.498Z,97704.30
2019-01-13T13:45:10.046Z,97697.69
2019-01-13T13:47:38.442Z,97704.30
2019-01-13T13:50:10.295Z,97694.20
2019-01-13T13:52:38.671Z,97708.26
2019-01-13T13:55:09.240Z,97721.80
2019-01-13T13:57:37.880Z,97711.23
2019-01-13T14:00:09.373Z,97702.97
2019-01-13T14:02:37.955Z,97707.41
2019-01-13T14:05:06.748Z,97687.27
2019-01-13T14:07:35.245Z,97684.14
2019-01-13T14:10:05.736Z,97665.98
2019-01-13T14:12:34.252Z,97665.65
2019-01-13T14:15:02.642Z,97658.53
2019-01-13T14:17:31.086Z,97680.99
2019-01-13T14:19:59.583Z,97668.77
2019-01-13T14:22:28.256Z,97668.91
2019-01-13T14:24:56.640Z,97657.64
2019-01-13T14:27:25.098Z,97653.68
2019-01-13T14:29:53.878Z,97662.45
2019-01-13T14:32:22.433Z,97660.62
2019-01-13T14:34:51.112Z,97666.89
2019-01-13T14:37:19.582Z,97659.19
2019-01-13T14:39:48.889Z,97649.80
2019-01-13T14:42:17.445Z,97641.72
2019-01-13T14:44:45.949Z,97633.17
2019-01-13T14:47:14.319Z,97643.93
2019-01-13T14:49:42.706Z,97646.43
2019-01-13T14:52:11.070Z,97638.36
2019-01-13T14:54:39.446Z,97640.05
2019-01-13T14:57:07.827Z,97647.34
2019-01-13T14:59:36.195Z,97638.91
2019-01-13T15:02:04.635Z,97626.06
2019-01-13T15:04:33.008Z,97649.19
2019-01-13T15:07:01.378Z,97628.05
2019-01-13T15:09:29.772Z,97622.28
2019-01-13T15:11:58.499Z,97619.50
2019-01-13T15:14:26.891Z,97623.68
2019-01-13T15:16:55.264Z,97613.99
2019-01-13T15:19:23.648Z,97609.84
2019-01-13T15:21:52.026Z,97619.35
2019-01-13T15:24:20.413Z,97617.70
2019-01-13T15:26:48.789Z,97600.19
2019-01-13T15:29:17.224Z,97607.13
2019-01-13T15:31:45.547Z,97608.78
2019-01-13T15:34:13.943Z,97611.27
2019-01-13T15:36:42.320Z,97596.73
2019-01-13T15:39:10.692Z,97601.77
2019-01-13T15:41:39.087Z,97611.20
2019-01-13T15:44:07.459Z,97611.06
2019-01-13T15:46:35.839Z,97611.75
2019-01-13T15:49:04.207Z,97620.41
2019-01-13T15:51:32.598Z,97608.70
2019-01-13T15:54:00.979Z,97594.52
2019-01-13T15:56:29.358Z,97619.34
2019-01-13T15:58:57.736Z,97611.78
2019-01-13T16:01:26.126Z,97617.59
2019-01-13T16:03:54.495Z,97617.59
2019-01-13T16:06:22.880Z,97610.86
2019-01-13T16:08:51.254Z,97629.70
2019-01-13T16:11:19.636Z,97628.08
2019-01-13T16:13:48.002Z,97626.28
2019-01-13T16:16:16.385Z,97615.22
2019-01-13T16:18:44.750Z,97607.14
2019-01-13T16:21:13.125Z,97613.61
2019-01-13T16:23:41.501Z,97605.05
2019-01-13T16:26:10.182Z,97611.84
2019-01-13T16:28:38.552Z,97619.14
2019-01-13T16:31:06.936Z,97609.26
2019-01-13T16:33:35.307Z,97609.11
2019-01-13T16:36:03.768Z,97613.27
2019-01-13T16:38:32.143Z,97616.60
2019-01-13T16:41:00.757Z,97610.83
2019-01-13T16:43:29.396Z,97594.81
2019-01-13T16:45:57.776Z,97598.99
2019-01-13T16:48:26.154Z,97592.56
2019-01-13T16:50:54.541Z,97600.70
2019-01-13T16:53:22.905Z,97605.34
2019-01-13T16:55:51.298Z,97586.82
2019-01-13T16:58:19.740Z,97590.78
2019-01-13T17:00:48.126Z,97588.69
2019-01-13T17:03:16.518Z,97589.05
2019-01-13T17:05:44.932Z,97587.06
2019-01-13T17:08:13.443Z,97586.28
2019-01-13T17:10:42.134Z,97569.74
2019-01-13T17:13:10.679Z,97586.64
2019-01-13T17:15:39.051Z,97581.67
2019-01-13T17:18:07.601Z,97579.88
2019-01-13T17:20:35.972Z,97574.76
2019-01-13T17:23:04.582Z,97572.11
2019-01-13T17:25:32.944Z,97568.14
2019-01-13T17:28:01.333Z,97577.94
2019-01-13T17:30:32.588Z,97563.75
2019-01-13T17:33:01.207Z,97563.75
2019-01-13T17:35:29.896Z,97562.75
2019-01-13T17:37:58.471Z,97559.95
2019-01-13T17:40:27.069Z,97561.64
2019-01-13T17:42:55.518Z,97548.73
2019-01-13T17:45:28.971Z,97551.87
2019-01-13T17:47:57.427Z,97544.44
2019-01-13T17:50:27.504Z,97539.47
2019-01-13T17:52:56.550Z,97523.44
2019-01-13T17:55:26.663Z,97521.64
2019-01-13T17:57:55.055Z,97526.78
2019-01-13T18:00:40.822Z,97525.13
2019-01-13T18:03:18.532Z,97534.23
2019-01-13T18:05:46.903Z,97534.72
2019-01-13T18:08:15.293Z,97521.81
2019-01-13T18:10:43.674Z,97517.03
2019-01-13T18:13:12.066Z,97512.55
2019-01-13T18:15:40.427Z,97541.21
2019-01-13T18:18:08.819Z,97547.67
2019-01-13T18:20:37.223Z,97538.26
2019-01-13T18:23:05.611Z,97542.59
2019-01-13T18:25:33.976Z,97546.05
2019-01-13T18:28:02.435Z,97535.82
2019-01-13T18:30:30.977Z,97533.50
2019-01-13T18:32:59.417Z,97536.98
2019-01-13T18:35:27.907Z,97536.51
2019-01-13T18:37:57.175Z,97530.38
2019-01-13T18:40:26.215Z,97521.44
2019-01-13T18:42:54.598Z,97517.98
2019-01-13T18:45:23.009Z,97512.53
2019-01-13T18:47:51.453Z,97516.83
2019-01-13T18:50:21.373Z,97511.89
2019-01-13T18:53:04.870Z,97520.31
2019-01-13T18:55:33.268Z,97521.48
2019-01-13T18:58:01.648Z,97519.95
2019-01-13T19:00:30.671Z,97519.47
2019-01-13T19:02:59.037Z,97511.89
2019-01-13T19:05:28.765Z,97515.98
2019-01-13T19:07:57.139Z,97519.84
2019-01-13T19:10:45.327Z,97526.09
2019-01-13T19:13:42.345Z,97564.00
2019-01-13T19:16:13.775Z,97576.39
2019-01-13T19:18:42.228Z,97605.48
2019-01-13T19:21:10.608Z,97594.44
2019-01-13T19:23:38.981Z,97595.77
2019-01-13T19:26:07.374Z,97586.50
2019-01-13T19:28:35.751Z,97589.14
2019-01-13T19:31:04.322Z,97596.24
2019-01-13T19:33:32.693Z,97589.62
2019-01-13T19:36:01.070Z,97589.30
2019-01-13T19:38:29.453Z,97612.97
2019-01-13T19:40:57.841Z,97620.22
2019-01-13T19:43:26.208Z,97614.09
2019-01-13T19:45:54.595Z,97624.52
2019-01-13T19:48:23.129Z,97616.55
2019-01-13T19:50:51.505Z,97614.92
2019-01-13T19:53:19.877Z,97607.14
2019-01-13T19:55:48.319Z,97604.97
2019-01-13T19:58:16.783Z,97602.00
2019-01-13T20:00:45.175Z,97607.29
2019-01-13T20:03:13.548Z,97602.95
2019-01-13T20:05:41.925Z,97610.09
2019-01-13T20:08:10.301Z,97604.10
2019-01-13T20:10:38.883Z,97609.73
2019-01-13T20:13:07.258Z,97618.99
2019-01-13T20:15:35.636Z,97615.02
2019-01-13T20:18:04.074Z,97617.81
2019-01-13T20:20:32.481Z,97624.28
2019-01-13T20:23:01.415Z,97630.58
2019-01-13T20:25:29.830Z,97634.22
2019-01-13T20:27:59.274Z,97637.34
2019-01-13T20:30:30.227Z,97637.94
2019-01-13T20:32:58.788Z,97639.41
2019-01-13T20:35:27.279Z,97644.70
2019-01-13T20:37:55.690Z,97644.02
2019-01-13T20:40:24.101Z,97639.56
2019-01-13T20:42:52.532Z,97634.91
2019-01-13T20:45:26.729Z,97638.03
2019-01-13T20:47:55.177Z,97642.62
2019-01-13T20:50:23.577Z,97643.63
2019-01-13T20:52:51.986Z,97645.09
2019-01-13T20:55:20.378Z,97651.86
2019-01-13T20:57:48.784Z,97647.20
2019-01-13T21:00:27.776Z,97659.73
2019-01-13T21:02:56.256Z,97650.14
2019-01-13T21:05:26.818Z,97658.23
2019-01-13T21:07:55.300Z,97668.81
2019-01-13T21:10:23.704Z,97664.16
2019-01-13T21:12:52.368Z,97659.01
2019-01-13T21:15:29.491Z,97664.48
2019-01-13T21:17:58.014Z,97669.59
2019-01-13T21:20:26.516Z,97665.62
2019-01-13T21:22:54.962Z,97665.27
2019-01-13T21:25:23.506Z,97672.02
2019-01-13T21:27:52.271Z,97669.53
2019-01-13T21:30:23.493Z,97685.88
2019-01-13T21:32:52.296Z,97680.95
2019-01-13T21:35:20.815Z,97679.56
2019-01-13T21:37:49.190Z,97679.78
2019-01-13T21:40:17.586Z,97679.92
2019-01-13T21:42:46.092Z,97682.42
2019-01-13T21:45:17.426Z,97676.44
2019-01-13T21:47:45.802Z,97684.37
2019-01-13T21:50:19.747Z,97692.31
2019-01-13T21:52:48.286Z,97691.32
2019-01-13T21:55:18.318Z,97695.10
2019-01-13T21:57:47.135Z,97701.02
2019-01-13T22:00:18.697Z,97696.21
2019-01-13T22:02:47.073Z,97697.34
2019-01-13T22:05:15.461Z,97696.17
2019-01-13T22:07:43.840Z,97697.49
2019-01-13T22:10:20.033Z,97686.55
2019-01-13T22:12:48.415Z,97689.82
2019-01-13T22:15:18.634Z,97708.34
2019-01-13T22:17:47.010Z,97705.36
2019-01-13T22:20:21.460Z,97701.06
2019-01-13T22:22:50.564Z,97701.20
2019-01-13T22:25:19.180Z,97704.48
2019-01-13T22:27:47.553Z,97715.53
2019-01-13T22:30:18.210Z,97713.03
2019-01-13T22:32:46.567Z,97711.23
2019-01-13T22:35:15.025Z,97712.55
2019-01-13T22:37:43.435Z,97712.70
2019-01-13T22:40:14.364Z,97712.81
2019-01-13T22:42:42.796Z,97724.38
2019-01-13T22:45:14.054Z,97719.23
2019-01-13T22:47:42.430Z,97727.32
2019-01-13T22:50:13.047Z,97728.64
2019-01-13T22:52:41.425Z,97731.91
2019-01-13T22:55:10.726Z,97739.00
2019-01-13T22:57:39.105Z,97737.34
2019-01-13T23:00:20.754Z,97745.75
2019-01-13T23:02:49.223Z,97738.30
2019-01-13T23:05:17.600Z,97746.05
2019-01-13T23:07:45.981Z,97746.52
2019-01-13T23:10:14.352Z,97751.48
2019-01-13T23:12:42.745Z,97750.30
2019-01-13T23:15:11.118Z,97744.64
2019-01-13T23:17:39.502Z,97752.58
2019-01-13T23:20:09.807Z,97763.52
2019-01-13T23:22:38.187Z,97758.86
2019-01-13T23:25:06.651Z,97768.87
2019-01-13T23:27:35.043Z,97768.87
2019-01-13T23:30:05.461Z,97767.22
2019-01-13T23:32:33.836Z,97773.46
2019-01-13T23:35:02.228Z,97773.94
2019-01-13T23:37:30.619Z,97781.05
2019-01-13T23:39:59.026Z,97767.13
2019-01-13T23:42:27.473Z,97771.58
2019-01-13T23:44:55.846Z,97771.69
2019-01-13T23:47:24.216Z,97784.06
2019-01-13T23:49:52.589Z,97801.39
2019-01-13T23:52:20.954Z,97797.09
2019-01-13T23:54:49.390Z,97790.48
2019-01-13T23:57:17.725Z,97777.27
2019-01-13T23:59:46.113Z,97786.66
